Allouez, Wisconsin
Current Conditions -  °F | °C
As of 9:17 AM on Friday 24 Oct 2014 (Local Time) from KGRB Reporting Station
Haze Haze  
Wind Chill: 45°   Ceiling: 400
Heat Index: 48°   Visibility: 2.5mi
Dew Point: 47°   Wind: 6mph
Humidity: 96%   Direction: 210°SSW
Pressure: 30.03"   Gusts: NA
Location:  44.48°N, 88.02°W
Report Text: KGRB 241417Z 21005KT 2 1/2SM BR OVC004 09/08 A3003 RMK AO2 T00890083
Loading
Personal Weather Stations






























Interactive Weather Map
Tropical Storm Tracking
New forecast layout! Learn more

10-Day Weather Forecast

Advertisements
Track Severe Weather on mobile